sensor_id;sensor_type;location;lat;lon;timestamp;P1;durP1;ratioP1;P2;durP2;ratioP2
84774;SDS011;75005;50.966;11.344;2023-12-20T00:01:39;0.30;;;0.30;;
84774;SDS011;75005;50.966;11.344;2023-12-20T00:04:04;0.75;;;0.50;;
84774;SDS011;75005;50.966;11.344;2023-12-20T00:06:30;0.30;;;0.30;;
84774;SDS011;75005;50.966;11.344;2023-12-20T00:08:55;1.95;;;0.47;;
84774;SDS011;75005;50.966;11.344;2023-12-20T00:11:22;0.40;;;0.40;;
84774;SDS011;75005;50.966;11.344;2023-12-20T00:13:48;0.22;;;0.22;;
84774;SDS011;75005;50.966;11.344;2023-12-20T00:16:13;0.20;;;0.20;;
84774;SDS011;75005;50.966;11.344;2023-12-20T00:18:39;0.50;;;0.30;;
84774;SDS011;75005;50.966;11.344;2023-12-20T00:21:04;0.43;;;0.30;;
84774;SDS011;75005;50.966;11.344;2023-12-20T00:23:29;0.30;;;0.30;;
84774;SDS011;75005;50.966;11.344;2023-12-20T00:25:55;1.08;;;0.35;;
84774;SDS011;75005;50.966;11.344;2023-12-20T00:28:20;0.40;;;0.40;;
84774;SDS011;75005;50.966;11.344;2023-12-20T00:30:46;0.40;;;0.28;;
84774;SDS011;75005;50.966;11.344;2023-12-20T00:33:11;0.25;;;0.22;;
84774;SDS011;75005;50.966;11.344;2023-12-20T00:35:36;0.40;;;0.40;;
84774;SDS011;75005;50.966;11.344;2023-12-20T00:38:02;0.33;;;0.33;;
84774;SDS011;75005;50.966;11.344;2023-12-20T00:40:32;0.30;;;0.30;;
84774;SDS011;75005;50.966;11.344;2023-12-20T00:42:58;0.28;;;0.28;;
84774;SDS011;75005;50.966;11.344;2023-12-20T00:45:23;0.35;;;0.35;;
84774;SDS011;75005;50.966;11.344;2023-12-20T00:47:48;0.30;;;0.30;;
84774;SDS011;75005;50.966;11.344;2023-12-20T00:50:14;0.28;;;0.22;;
84774;SDS011;75005;50.966;11.344;2023-12-20T00:52:39;0.17;;;0.17;;
84774;SDS011;75005;50.966;11.344;2023-12-20T00:55:05;0.20;;;0.20;;
84774;SDS011;75005;50.966;11.344;2023-12-20T00:57:31;0.30;;;0.30;;
84774;SDS011;75005;50.966;11.344;2023-12-20T00:59:59;0.20;;;0.20;;
84774;SDS011;75005;50.966;11.344;2023-12-20T01:02:25;0.32;;;0.32;;
84774;SDS011;75005;50.966;11.344;2023-12-20T01:04:50;0.20;;;0.20;;
84774;SDS011;75005;50.966;11.344;2023-12-20T01:07:15;0.20;;;0.20;;
84774;SDS011;75005;50.966;11.344;2023-12-20T01:09:41;0.30;;;0.30;;
84774;SDS011;75005;50.966;11.344;2023-12-20T01:12:06;0.47;;;0.47;;
84774;SDS011;75005;50.966;11.344;2023-12-20T01:14:32;0.20;;;0.20;;
84774;SDS011;75005;50.966;11.344;2023-12-20T01:16:57;0.50;;;0.35;;
84774;SDS011;75005;50.966;11.344;2023-12-20T01:19:22;0.30;;;0.30;;
84774;SDS011;75005;50.966;11.344;2023-12-20T01:21:49;0.20;;;0.20;;
84774;SDS011;75005;50.966;11.344;2023-12-20T01:24:14;0.22;;;0.22;;
84774;SDS011;75005;50.966;11.344;2023-12-20T01:26:39;0.10;;;0.10;;
84774;SDS011;75005;50.966;11.344;2023-12-20T01:29:05;1.48;;;0.60;;
84774;SDS011;75005;50.966;11.344;2023-12-20T01:31:30;0.43;;;0.30;;
84774;SDS011;75005;50.966;11.344;2023-12-20T01:33:55;0.20;;;0.20;;
84774;SDS011;75005;50.966;11.344;2023-12-20T01:36:21;0.32;;;0.32;;
84774;SDS011;75005;50.966;11.344;2023-12-20T01:38:46;0.45;;;0.32;;
84774;SDS011;75005;50.966;11.344;2023-12-20T01:41:12;0.40;;;0.37;;
84774;SDS011;75005;50.966;11.344;2023-12-20T01:43:37;0.30;;;0.30;;
84774;SDS011;75005;50.966;11.344;2023-12-20T01:46:03;0.32;;;0.32;;
84774;SDS011;75005;50.966;11.344;2023-12-20T01:48:28;0.32;;;0.32;;
84774;SDS011;75005;50.966;11.344;2023-12-20T01:50:54;0.40;;;0.40;;
84774;SDS011;75005;50.966;11.344;2023-12-20T01:53:20;0.40;;;0.30;;
84774;SDS011;75005;50.966;11.344;2023-12-20T01:55:47;0.22;;;0.22;;
84774;SDS011;75005;50.966;11.344;2023-12-20T01:58:13;0.50;;;0.50;;
84774;SDS011;75005;50.966;11.344;2023-12-20T02:00:39;0.20;;;0.20;;
84774;SDS011;75005;50.966;11.344;2023-12-20T02:03:04;0.30;;;0.30;;
84774;SDS011;75005;50.966;11.344;2023-12-20T02:05:30;0.22;;;0.22;;
84774;SDS011;75005;50.966;11.344;2023-12-20T02:07:57;0.22;;;0.22;;
84774;SDS011;75005;50.966;11.344;2023-12-20T02:10:22;0.22;;;0.22;;
84774;SDS011;75005;50.966;11.344;2023-12-20T02:12:48;0.22;;;0.22;;
84774;SDS011;75005;50.966;11.344;2023-12-20T02:15:14;1.95;;;0.30;;
84774;SDS011;75005;50.966;11.344;2023-12-20T02:17:40;0.43;;;0.43;;
84774;SDS011;75005;50.966;11.344;2023-12-20T02:20:05;0.28;;;0.28;;
84774;SDS011;75005;50.966;11.344;2023-12-20T02:22:31;0.30;;;0.30;;
84774;SDS011;75005;50.966;11.344;2023-12-20T02:24:57;0.50;;;0.40;;
84774;SDS011;75005;50.966;11.344;2023-12-20T02:27:23;0.25;;;0.25;;
84774;SDS011;75005;50.966;11.344;2023-12-20T02:29:48;0.47;;;0.22;;
84774;SDS011;75005;50.966;11.344;2023-12-20T02:32:15;0.20;;;0.20;;
84774;SDS011;75005;50.966;11.344;2023-12-20T02:34:41;0.22;;;0.22;;
84774;SDS011;75005;50.966;11.344;2023-12-20T02:37:06;0.40;;;0.40;;
84774;SDS011;75005;50.966;11.344;2023-12-20T02:39:32;0.50;;;0.43;;
84774;SDS011;75005;50.966;11.344;2023-12-20T02:41:58;0.30;;;0.30;;
84774;SDS011;75005;50.966;11.344;2023-12-20T02:44:23;0.35;;;0.35;;
84774;SDS011;75005;50.966;11.344;2023-12-20T02:46:49;0.30;;;0.30;;
84774;SDS011;75005;50.966;11.344;2023-12-20T02:49:15;0.25;;;0.25;;
84774;SDS011;75005;50.966;11.344;2023-12-20T02:51:40;0.30;;;0.30;;
84774;SDS011;75005;50.966;11.344;2023-12-20T02:54:05;0.13;;;0.10;;
84774;SDS011;75005;50.966;11.344;2023-12-20T02:56:34;0.20;;;0.20;;
84774;SDS011;75005;50.966;11.344;2023-12-20T02:59:00;0.43;;;0.43;;
84774;SDS011;75005;50.966;11.344;2023-12-20T03:01:26;0.30;;;0.30;;
84774;SDS011;75005;50.966;11.344;2023-12-20T03:03:51;0.20;;;0.20;;
84774;SDS011;75005;50.966;11.344;2023-12-20T03:06:17;0.22;;;0.22;;
84774;SDS011;75005;50.966;11.344;2023-12-20T03:08:44;0.30;;;0.30;;
84774;SDS011;75005;50.966;11.344;2023-12-20T03:11:09;0.32;;;0.32;;
84774;SDS011;75005;50.966;11.344;2023-12-20T03:13:35;0.30;;;0.30;;
84774;SDS011;75005;50.966;11.344;2023-12-20T03:16:00;0.30;;;0.30;;
84774;SDS011;75005;50.966;11.344;2023-12-20T03:18:25;0.23;;;0.23;;
84774;SDS011;75005;50.966;11.344;2023-12-20T03:20:53;0.30;;;0.30;;
84774;SDS011;75005;50.966;11.344;2023-12-20T03:23:18;0.38;;;0.28;;
84774;SDS011;75005;50.966;11.344;2023-12-20T03:25:43;0.30;;;0.30;;
84774;SDS011;75005;50.966;11.344;2023-12-20T03:28:09;0.30;;;0.30;;
84774;SDS011;75005;50.966;11.344;2023-12-20T03:30:34;0.25;;;0.25;;
84774;SDS011;75005;50.966;11.344;2023-12-20T03:32:59;0.20;;;0.20;;
84774;SDS011;75005;50.966;11.344;2023-12-20T03:35:25;0.20;;;0.20;;
84774;SDS011;75005;50.966;11.344;2023-12-20T03:37:50;0.30;;;0.30;;
84774;SDS011;75005;50.966;11.344;2023-12-20T03:40:16;0.40;;;0.20;;
84774;SDS011;75005;50.966;11.344;2023-12-20T03:42:41;0.40;;;0.40;;
84774;SDS011;75005;50.966;11.344;2023-12-20T03:45:06;0.37;;;0.37;;
84774;SDS011;75005;50.966;11.344;2023-12-20T03:47:32;0.20;;;0.20;;
84774;SDS011;75005;50.966;11.344;2023-12-20T03:49:58;0.30;;;0.30;;
84774;SDS011;75005;50.966;11.344;2023-12-20T03:52:23;0.40;;;0.40;;
84774;SDS011;75005;50.966;11.344;2023-12-20T03:54:48;0.60;;;0.40;;
84774;SDS011;75005;50.966;11.344;2023-12-20T03:57:14;0.30;;;0.30;;
84774;SDS011;75005;50.966;11.344;2023-12-20T03:59:39;0.43;;;0.30;;
84774;SDS011;75005;50.966;11.344;2023-12-20T04:02:04;0.30;;;0.30;;
84774;SDS011;75005;50.966;11.344;2023-12-20T04:04:30;0.10;;;0.10;;
84774;SDS011;75005;50.966;11.344;2023-12-20T04:06:55;0.30;;;0.30;;
84774;SDS011;75005;50.966;11.344;2023-12-20T04:09:20;0.45;;;0.20;;
84774;SDS011;75005;50.966;11.344;2023-12-20T04:11:46;0.55;;;0.55;;
84774;SDS011;75005;50.966;11.344;2023-12-20T04:14:11;0.40;;;0.40;;
84774;SDS011;75005;50.966;11.344;2023-12-20T04:16:37;0.30;;;0.30;;
84774;SDS011;75005;50.966;11.344;2023-12-20T04:19:04;0.40;;;0.28;;
84774;SDS011;75005;50.966;11.344;2023-12-20T04:21:29;0.30;;;0.30;;
84774;SDS011;75005;50.966;11.344;2023-12-20T04:23:54;0.30;;;0.30;;
84774;SDS011;75005;50.966;11.344;2023-12-20T04:26:20;0.32;;;0.32;;
84774;SDS011;75005;50.966;11.344;2023-12-20T04:28:45;0.52;;;0.50;;
84774;SDS011;75005;50.966;11.344;2023-12-20T04:31:10;0.40;;;0.40;;
84774;SDS011;75005;50.966;11.344;2023-12-20T04:33:36;0.63;;;0.60;;
84774;SDS011;75005;50.966;11.344;2023-12-20T04:36:01;0.60;;;0.60;;
84774;SDS011;75005;50.966;11.344;2023-12-20T04:38:27;0.70;;;0.63;;
84774;SDS011;75005;50.966;11.344;2023-12-20T04:40:52;0.80;;;0.80;;
84774;SDS011;75005;50.966;11.344;2023-12-20T04:43:17;0.88;;;0.73;;
84774;SDS011;75005;50.966;11.344;2023-12-20T04:45:43;1.27;;;0.90;;
84774;SDS011;75005;50.966;11.344;2023-12-20T04:48:08;1.50;;;1.10;;
84774;SDS011;75005;50.966;11.344;2023-12-20T04:50:34;1.13;;;0.82;;
84774;SDS011;75005;50.966;11.344;2023-12-20T04:52:59;0.98;;;0.88;;
84774;SDS011;75005;50.966;11.344;2023-12-20T04:55:25;0.68;;;0.68;;
84774;SDS011;75005;50.966;11.344;2023-12-20T04:57:50;0.68;;;0.60;;
84774;SDS011;75005;50.966;11.344;2023-12-20T05:00:15;0.73;;;0.73;;
84774;SDS011;75005;50.966;11.344;2023-12-20T05:02:41;0.65;;;0.65;;
84774;SDS011;75005;50.966;11.344;2023-12-20T05:05:06;3.97;;;0.80;;
84774;SDS011;75005;50.966;11.344;2023-12-20T05:07:32;1.40;;;0.73;;
84774;SDS011;75005;50.966;11.344;2023-12-20T05:09:58;2.10;;;1.13;;
84774;SDS011;75005;50.966;11.344;2023-12-20T05:12:23;1.13;;;1.02;;
84774;SDS011;75005;50.966;11.344;2023-12-20T05:14:49;0.82;;;0.82;;
84774;SDS011;75005;50.966;11.344;2023-12-20T05:17:14;2.28;;;1.20;;
84774;SDS011;75005;50.966;11.344;2023-12-20T05:19:40;1.40;;;1.20;;
84774;SDS011;75005;50.966;11.344;2023-12-20T05:22:05;1.00;;;0.90;;
84774;SDS011;75005;50.966;11.344;2023-12-20T05:24:31;1.65;;;1.02;;
84774;SDS011;75005;50.966;11.344;2023-12-20T05:26:56;1.33;;;1.23;;
84774;SDS011;75005;50.966;11.344;2023-12-20T05:29:21;1.30;;;1.20;;
84774;SDS011;75005;50.966;11.344;2023-12-20T05:31:47;1.67;;;1.40;;
84774;SDS011;75005;50.966;11.344;2023-12-20T05:34:12;1.53;;;1.23;;
84774;SDS011;75005;50.966;11.344;2023-12-20T05:36:38;0.75;;;0.75;;
84774;SDS011;75005;50.966;11.344;2023-12-20T05:39:04;1.17;;;1.08;;
84774;SDS011;75005;50.966;11.344;2023-12-20T05:41:30;1.40;;;0.82;;
84774;SDS011;75005;50.966;11.344;2023-12-20T05:43:56;2.05;;;1.20;;
84774;SDS011;75005;50.966;11.344;2023-12-20T05:46:23;2.85;;;1.42;;
84774;SDS011;75005;50.966;11.344;2023-12-20T05:48:48;3.13;;;1.40;;
84774;SDS011;75005;50.966;11.344;2023-12-20T05:51:14;1.30;;;1.00;;
84774;SDS011;75005;50.966;11.344;2023-12-20T05:53:39;1.83;;;1.27;;
84774;SDS011;75005;50.966;11.344;2023-12-20T05:56:05;1.63;;;1.10;;
84774;SDS011;75005;50.966;11.344;2023-12-20T05:58:31;1.52;;;1.20;;
84774;SDS011;75005;50.966;11.344;2023-12-20T06:00:57;1.60;;;1.30;;
84774;SDS011;75005;50.966;11.344;2023-12-20T06:03:23;1.23;;;1.08;;
84774;SDS011;75005;50.966;11.344;2023-12-20T06:05:48;2.67;;;1.47;;
84774;SDS011;75005;50.966;11.344;2023-12-20T06:08:14;1.30;;;1.00;;
84774;SDS011;75005;50.966;11.344;2023-12-20T06:10:39;2.33;;;1.50;;
84774;SDS011;75005;50.966;11.344;2023-12-20T06:13:05;2.95;;;1.50;;
84774;SDS011;75005;50.966;11.344;2023-12-20T06:15:32;3.22;;;1.20;;
84774;SDS011;75005;50.966;11.344;2023-12-20T06:17:57;1.50;;;1.02;;
84774;SDS011;75005;50.966;11.344;2023-12-20T06:20:23;2.57;;;1.20;;
84774;SDS011;75005;50.966;11.344;2023-12-20T06:22:48;1.40;;;1.20;;
84774;SDS011;75005;50.966;11.344;2023-12-20T06:25:13;1.95;;;1.55;;
84774;SDS011;75005;50.966;11.344;2023-12-20T06:27:39;2.45;;;1.55;;
84774;SDS011;75005;50.966;11.344;2023-12-20T06:30:06;2.90;;;1.70;;
84774;SDS011;75005;50.966;11.344;2023-12-20T06:32:34;4.68;;;1.80;;
84774;SDS011;75005;50.966;11.344;2023-12-20T06:35:03;2.70;;;1.60;;
84774;SDS011;75005;50.966;11.344;2023-12-20T06:37:30;1.58;;;1.33;;
84774;SDS011;75005;50.966;11.344;2023-12-20T06:39:55;6.60;;;2.03;;
84774;SDS011;75005;50.966;11.344;2023-12-20T06:42:21;2.63;;;1.90;;
84774;SDS011;75005;50.966;11.344;2023-12-20T06:44:47;4.57;;;2.38;;
84774;SDS011;75005;50.966;11.344;2023-12-20T06:47:13;2.25;;;1.58;;
84774;SDS011;75005;50.966;11.344;2023-12-20T06:49:39;4.07;;;2.17;;
84774;SDS011;75005;50.966;11.344;2023-12-20T06:52:05;4.18;;;2.08;;
84774;SDS011;75005;50.966;11.344;2023-12-20T06:54:31;3.78;;;3.13;;
84774;SDS011;75005;50.966;11.344;2023-12-20T06:56:56;4.53;;;2.03;;
84774;SDS011;75005;50.966;11.344;2023-12-20T06:59:21;3.30;;;2.40;;
84774;SDS011;75005;50.966;11.344;2023-12-20T07:01:47;3.20;;;1.83;;
84774;SDS011;75005;50.966;11.344;2023-12-20T07:04:16;3.83;;;2.35;;
84774;SDS011;75005;50.966;11.344;2023-12-20T07:06:45;4.65;;;2.00;;
84774;SDS011;75005;50.966;11.344;2023-12-20T07:09:10;5.55;;;2.15;;
84774;SDS011;75005;50.966;11.344;2023-12-20T07:11:36;2.67;;;1.70;;
84774;SDS011;75005;50.966;11.344;2023-12-20T07:14:01;2.72;;;1.38;;
84774;SDS011;75005;50.966;11.344;2023-12-20T07:16:26;2.90;;;1.33;;
84774;SDS011;75005;50.966;11.344;2023-12-20T07:18:52;3.10;;;1.30;;
84774;SDS011;75005;50.966;11.344;2023-12-20T07:21:17;9.27;;;1.45;;
84774;SDS011;75005;50.966;11.344;2023-12-20T07:23:43;3.00;;;1.65;;
84774;SDS011;75005;50.966;11.344;2023-12-20T07:26:08;3.78;;;1.60;;
84774;SDS011;75005;50.966;11.344;2023-12-20T07:28:34;1.77;;;1.30;;
84774;SDS011;75005;50.966;11.344;2023-12-20T07:30:59;2.70;;;2.13;;
84774;SDS011;75005;50.966;11.344;2023-12-20T07:33:24;7.13;;;1.95;;
84774;SDS011;75005;50.966;11.344;2023-12-20T07:35:50;4.70;;;1.90;;
84774;SDS011;75005;50.966;11.344;2023-12-20T07:38:16;3.88;;;1.45;;
84774;SDS011;75005;50.966;11.344;2023-12-20T07:40:42;2.10;;;1.23;;
84774;SDS011;75005;50.966;11.344;2023-12-20T07:43:07;3.15;;;1.73;;
84774;SDS011;75005;50.966;11.344;2023-12-20T07:45:33;4.78;;;1.42;;
84774;SDS011;75005;50.966;11.344;2023-12-20T07:47:58;4.28;;;2.05;;
84774;SDS011;75005;50.966;11.344;2023-12-20T07:50:24;4.60;;;1.85;;
84774;SDS011;75005;50.966;11.344;2023-12-20T07:52:49;2.08;;;1.60;;
84774;SDS011;75005;50.966;11.344;2023-12-20T07:55:15;3.28;;;1.83;;
84774;SDS011;75005;50.966;11.344;2023-12-20T07:57:40;8.50;;;2.17;;
84774;SDS011;75005;50.966;11.344;2023-12-20T08:00:06;5.35;;;1.90;;
84774;SDS011;75005;50.966;11.344;2023-12-20T08:02:31;5.88;;;1.95;;
84774;SDS011;75005;50.966;11.344;2023-12-20T08:04:57;7.30;;;2.03;;
84774;SDS011;75005;50.966;11.344;2023-12-20T08:07:22;2.90;;;2.25;;
84774;SDS011;75005;50.966;11.344;2023-12-20T08:09:48;1.65;;;1.55;;
84774;SDS011;75005;50.966;11.344;2023-12-20T08:12:13;2.17;;;1.55;;
84774;SDS011;75005;50.966;11.344;2023-12-20T08:14:42;6.15;;;1.40;;
84774;SDS011;75005;50.966;11.344;2023-12-20T08:17:07;1.60;;;1.33;;
84774;SDS011;75005;50.966;11.344;2023-12-20T08:19:32;2.65;;;2.00;;
84774;SDS011;75005;50.966;11.344;2023-12-20T08:21:58;3.47;;;1.90;;
84774;SDS011;75005;50.966;11.344;2023-12-20T08:24:23;2.92;;;2.53;;
84774;SDS011;75005;50.966;11.344;2023-12-20T08:26:48;2.63;;;2.13;;
84774;SDS011;75005;50.966;11.344;2023-12-20T08:29:14;4.03;;;2.00;;
84774;SDS011;75005;50.966;11.344;2023-12-20T08:31:39;6.70;;;1.77;;
84774;SDS011;75005;50.966;11.344;2023-12-20T08:34:05;2.88;;;1.95;;
84774;SDS011;75005;50.966;11.344;2023-12-20T08:36:30;3.60;;;1.90;;
84774;SDS011;75005;50.966;11.344;2023-12-20T08:38:56;2.72;;;1.60;;
84774;SDS011;75005;50.966;11.344;2023-12-20T08:41:28;1.95;;;1.52;;
84774;SDS011;75005;50.966;11.344;2023-12-20T08:43:54;5.18;;;1.95;;
84774;SDS011;75005;50.966;11.344;2023-12-20T08:46:19;6.50;;;1.60;;
84774;SDS011;75005;50.966;11.344;2023-12-20T08:48:45;3.78;;;2.05;;
84774;SDS011;75005;50.966;11.344;2023-12-20T08:51:10;4.05;;;1.70;;
84774;SDS011;75005;50.966;11.344;2023-12-20T08:53:36;3.08;;;1.60;;
84774;SDS011;75005;50.966;11.344;2023-12-20T08:56:01;3.42;;;1.60;;
84774;SDS011;75005;50.966;11.344;2023-12-20T08:58:27;4.63;;;1.80;;
84774;SDS011;75005;50.966;11.344;2023-12-20T09:00:53;3.22;;;1.70;;
84774;SDS011;75005;50.966;11.344;2023-12-20T09:03:18;3.90;;;1.70;;
84774;SDS011;75005;50.966;11.344;2023-12-20T09:05:44;7.72;;;2.10;;
84774;SDS011;75005;50.966;11.344;2023-12-20T09:08:09;5.70;;;1.33;;
84774;SDS011;75005;50.966;11.344;2023-12-20T09:10:35;1.88;;;1.35;;
84774;SDS011;75005;50.966;11.344;2023-12-20T09:13:01;4.38;;;1.85;;
84774;SDS011;75005;50.966;11.344;2023-12-20T09:15:27;1.73;;;1.08;;
84774;SDS011;75005;50.966;11.344;2023-12-20T09:17:54;4.75;;;1.83;;
84774;SDS011;75005;50.966;11.344;2023-12-20T09:20:19;3.83;;;1.50;;
84774;SDS011;75005;50.966;11.344;2023-12-20T09:22:44;2.40;;;1.75;;
84774;SDS011;75005;50.966;11.344;2023-12-20T09:25:10;5.53;;;1.67;;
84774;SDS011;75005;50.966;11.344;2023-12-20T09:27:36;3.72;;;1.40;;
84774;SDS011;75005;50.966;11.344;2023-12-20T09:30:02;2.35;;;1.00;;
84774;SDS011;75005;50.966;11.344;2023-12-20T09:32:27;3.35;;;1.63;;
84774;SDS011;75005;50.966;11.344;2023-12-20T09:34:54;4.30;;;1.27;;
84774;SDS011;75005;50.966;11.344;2023-12-20T09:37:20;4.53;;;2.10;;
84774;SDS011;75005;50.966;11.344;2023-12-20T09:39:45;3.58;;;1.15;;
84774;SDS011;75005;50.966;11.344;2023-12-20T09:42:11;3.88;;;1.42;;
84774;SDS011;75005;50.966;11.344;2023-12-20T09:44:37;2.55;;;1.20;;
84774;SDS011;75005;50.966;11.344;2023-12-20T09:47:06;2.85;;;1.23;;
84774;SDS011;75005;50.966;11.344;2023-12-20T09:49:31;3.53;;;1.52;;
84774;SDS011;75005;50.966;11.344;2023-12-20T09:52:00;3.33;;;1.40;;
84774;SDS011;75005;50.966;11.344;2023-12-20T09:54:26;3.80;;;1.30;;
84774;SDS011;75005;50.966;11.344;2023-12-20T09:56:53;3.25;;;1.55;;
84774;SDS011;75005;50.966;11.344;2023-12-20T09:59:19;5.25;;;1.48;;
84774;SDS011;75005;50.966;11.344;2023-12-20T10:01:44;2.83;;;1.33;;
84774;SDS011;75005;50.966;11.344;2023-12-20T10:04:10;6.10;;;1.52;;
84774;SDS011;75005;50.966;11.344;2023-12-20T10:06:38;4.38;;;1.40;;
84774;SDS011;75005;50.966;11.344;2023-12-20T10:09:04;6.30;;;1.38;;
84774;SDS011;75005;50.966;11.344;2023-12-20T10:11:30;5.35;;;1.30;;
84774;SDS011;75005;50.966;11.344;2023-12-20T10:13:59;5.55;;;1.42;;
84774;SDS011;75005;50.966;11.344;2023-12-20T10:16:28;3.72;;;1.40;;
84774;SDS011;75005;50.966;11.344;2023-12-20T10:18:54;5.63;;;1.33;;
84774;SDS011;75005;50.966;11.344;2023-12-20T10:21:20;3.17;;;1.42;;
84774;SDS011;75005;50.966;11.344;2023-12-20T10:23:46;5.70;;;1.30;;
84774;SDS011;75005;50.966;11.344;2023-12-20T10:26:24;4.97;;;1.15;;
84774;SDS011;75005;50.966;11.344;2023-12-20T10:28:55;2.70;;;1.35;;
84774;SDS011;75005;50.966;11.344;2023-12-20T10:31:32;3.70;;;1.02;;
84774;SDS011;75005;50.966;11.344;2023-12-20T10:33:58;2.35;;;1.17;;
84774;SDS011;75005;50.966;11.344;2023-12-20T10:36:25;4.32;;;1.00;;
84774;SDS011;75005;50.966;11.344;2023-12-20T10:38:54;3.83;;;1.50;;
84774;SDS011;75005;50.966;11.344;2023-12-20T10:41:31;3.50;;;1.20;;
84774;SDS011;75005;50.966;11.344;2023-12-20T10:44:01;3.15;;;1.42;;
84774;SDS011;75005;50.966;11.344;2023-12-20T10:46:30;2.65;;;1.00;;
84774;SDS011;75005;50.966;11.344;2023-12-20T10:48:57;3.60;;;1.05;;
84774;SDS011;75005;50.966;11.344;2023-12-20T10:51:23;3.90;;;1.67;;
84774;SDS011;75005;50.966;11.344;2023-12-20T10:53:52;4.97;;;1.17;;
84774;SDS011;75005;50.966;11.344;2023-12-20T10:56:18;3.15;;;1.55;;
84774;SDS011;75005;50.966;11.344;2023-12-20T10:58:45;9.20;;;1.70;;
84774;SDS011;75005;50.966;11.344;2023-12-20T11:01:12;5.35;;;1.35;;
84774;SDS011;75005;50.966;11.344;2023-12-20T11:03:39;6.43;;;1.83;;
84774;SDS011;75005;50.966;11.344;2023-12-20T11:06:10;3.97;;;1.15;;
84774;SDS011;75005;50.966;11.344;2023-12-20T11:08:45;4.57;;;1.10;;
84774;SDS011;75005;50.966;11.344;2023-12-20T11:11:20;4.47;;;1.05;;
84774;SDS011;75005;50.966;11.344;2023-12-20T11:13:58;4.38;;;1.45;;
84774;SDS011;75005;50.966;11.344;2023-12-20T11:16:27;4.07;;;1.05;;
84774;SDS011;75005;50.966;11.344;2023-12-20T11:18:52;1.92;;;1.33;;
84774;SDS011;75005;50.966;11.344;2023-12-20T11:21:17;7.30;;;1.67;;
84774;SDS011;75005;50.966;11.344;2023-12-20T11:23:43;2.78;;;1.00;;
84774;SDS011;75005;50.966;11.344;2023-12-20T11:26:08;4.72;;;1.50;;
84774;SDS011;75005;50.966;11.344;2023-12-20T11:28:34;3.88;;;1.40;;
84774;SDS011;75005;50.966;11.344;2023-12-20T11:31:00;2.78;;;0.95;;
84774;SDS011;75005;50.966;11.344;2023-12-20T11:33:27;3.63;;;1.33;;
84774;SDS011;75005;50.966;11.344;2023-12-20T11:38:21;2.13;;;1.52;;
84774;SDS011;75005;50.966;11.344;2023-12-20T11:40:48;2.25;;;0.90;;
84774;SDS011;75005;50.966;11.344;2023-12-20T11:46:02;5.10;;;1.58;;
84774;SDS011;75005;50.966;11.344;2023-12-20T11:48:30;6.75;;;1.10;;
84774;SDS011;75005;50.966;11.344;2023-12-20T11:50:56;2.75;;;1.02;;
84774;SDS011;75005;50.966;11.344;2023-12-20T11:53:21;3.20;;;1.10;;
84774;SDS011;75005;50.966;11.344;2023-12-20T11:55:48;3.63;;;1.42;;
84774;SDS011;75005;50.966;11.344;2023-12-20T11:58:14;5.18;;;1.10;;
84774;SDS011;75005;50.966;11.344;2023-12-20T12:00:41;4.72;;;1.13;;
84774;SDS011;75005;50.966;11.344;2023-12-20T12:03:08;2.72;;;1.50;;
84774;SDS011;75005;50.966;11.344;2023-12-20T12:05:34;2.80;;;1.10;;
84774;SDS011;75005;50.966;11.344;2023-12-20T12:07:59;1.55;;;1.23;;
84774;SDS011;75005;50.966;11.344;2023-12-20T12:10:24;4.82;;;1.30;;
84774;SDS011;75005;50.966;11.344;2023-12-20T12:12:50;3.27;;;1.13;;
84774;SDS011;75005;50.966;11.344;2023-12-20T12:15:15;8.02;;;1.98;;
84774;SDS011;75005;50.966;11.344;2023-12-20T12:17:41;1.02;;;0.88;;
84774;SDS011;75005;50.966;11.344;2023-12-20T12:20:06;3.00;;;1.23;;
84774;SDS011;75005;50.966;11.344;2023-12-20T12:22:34;2.50;;;1.10;;
84774;SDS011;75005;50.966;11.344;2023-12-20T12:25:09;4.63;;;0.88;;
84774;SDS011;75005;50.966;11.344;2023-12-20T12:27:35;5.20;;;1.60;;
84774;SDS011;75005;50.966;11.344;2023-12-20T12:30:03;4.10;;;1.63;;
84774;SDS011;75005;50.966;11.344;2023-12-20T12:32:29;5.13;;;1.58;;
84774;SDS011;75005;50.966;11.344;2023-12-20T12:34:55;2.05;;;1.33;;
84774;SDS011;75005;50.966;11.344;2023-12-20T12:37:20;1.77;;;1.10;;
84774;SDS011;75005;50.966;11.344;2023-12-20T12:39:49;3.28;;;1.35;;
84774;SDS011;75005;50.966;11.344;2023-12-20T12:42:14;2.90;;;0.85;;
84774;SDS011;75005;50.966;11.344;2023-12-20T12:44:40;4.18;;;1.17;;
84774;SDS011;75005;50.966;11.344;2023-12-20T12:47:05;4.57;;;2.05;;
84774;SDS011;75005;50.966;11.344;2023-12-20T12:49:31;3.83;;;1.05;;
84774;SDS011;75005;50.966;11.344;2023-12-20T12:51:57;4.85;;;1.13;;
84774;SDS011;75005;50.966;11.344;2023-12-20T12:54:23;2.00;;;1.23;;
84774;SDS011;75005;50.966;11.344;2023-12-20T12:56:49;2.83;;;1.27;;
84774;SDS011;75005;50.966;11.344;2023-12-20T12:59:34;3.05;;;0.95;;
84774;SDS011;75005;50.966;11.344;2023-12-20T13:02:00;1.60;;;0.80;;
84774;SDS011;75005;50.966;11.344;2023-12-20T13:04:25;1.20;;;1.10;;
84774;SDS011;75005;50.966;11.344;2023-12-20T13:06:51;2.17;;;1.05;;
84774;SDS011;75005;50.966;11.344;2023-12-20T13:09:16;3.53;;;1.13;;
84774;SDS011;75005;50.966;11.344;2023-12-20T13:11:42;5.03;;;1.35;;
84774;SDS011;75005;50.966;11.344;2023-12-20T13:14:07;4.43;;;1.30;;
84774;SDS011;75005;50.966;11.344;2023-12-20T13:16:35;6.47;;;2.65;;
84774;SDS011;75005;50.966;11.344;2023-12-20T13:19:01;2.75;;;1.10;;
84774;SDS011;75005;50.966;11.344;2023-12-20T13:21:26;4.07;;;1.17;;
84774;SDS011;75005;50.966;11.344;2023-12-20T13:23:51;5.50;;;1.43;;
84774;SDS011;75005;50.966;11.344;2023-12-20T13:26:37;2.88;;;0.98;;
84774;SDS011;75005;50.966;11.344;2023-12-20T13:29:02;1.20;;;0.90;;
84774;SDS011;75005;50.966;11.344;2023-12-20T13:31:28;2.45;;;0.82;;
84774;SDS011;75005;50.966;11.344;2023-12-20T13:33:53;3.70;;;1.00;;
84774;SDS011;75005;50.966;11.344;2023-12-20T13:36:19;4.22;;;1.08;;
84774;SDS011;75005;50.966;11.344;2023-12-20T13:38:44;3.55;;;1.40;;
84774;SDS011;75005;50.966;11.344;2023-12-20T13:41:09;2.38;;;1.20;;
84774;SDS011;75005;50.966;11.344;2023-12-20T13:43:35;0.82;;;0.65;;
84774;SDS011;75005;50.966;11.344;2023-12-20T13:46:00;3.35;;;1.08;;
84774;SDS011;75005;50.966;11.344;2023-12-20T13:48:26;7.20;;;1.45;;
84774;SDS011;75005;50.966;11.344;2023-12-20T13:50:51;1.27;;;0.80;;
84774;SDS011;75005;50.966;11.344;2023-12-20T13:53:17;5.32;;;1.55;;
84774;SDS011;75005;50.966;11.344;2023-12-20T13:55:42;2.85;;;1.10;;
84774;SDS011;75005;50.966;11.344;2023-12-20T13:58:08;2.63;;;1.05;;
84774;SDS011;75005;50.966;11.344;2023-12-20T14:00:35;4.53;;;1.13;;
84774;SDS011;75005;50.966;11.344;2023-12-20T14:03:01;0.82;;;0.70;;
84774;SDS011;75005;50.966;11.344;2023-12-20T14:05:27;2.78;;;0.93;;
84774;SDS011;75005;50.966;11.344;2023-12-20T14:07:53;5.68;;;0.98;;
84774;SDS011;75005;50.966;11.344;2023-12-20T14:10:18;5.82;;;1.08;;
84774;SDS011;75005;50.966;11.344;2023-12-20T14:12:44;2.40;;;1.10;;
84774;SDS011;75005;50.966;11.344;2023-12-20T14:15:10;1.75;;;0.73;;
84774;SDS011;75005;50.966;11.344;2023-12-20T14:17:38;5.40;;;1.65;;
84774;SDS011;75005;50.966;11.344;2023-12-20T14:20:05;5.10;;;0.80;;
84774;SDS011;75005;50.966;11.344;2023-12-20T14:22:32;2.72;;;1.05;;
84774;SDS011;75005;50.966;11.344;2023-12-20T14:24:57;0.77;;;0.77;;
84774;SDS011;75005;50.966;11.344;2023-12-20T14:27:23;1.60;;;0.90;;
84774;SDS011;75005;50.966;11.344;2023-12-20T14:29:49;1.98;;;0.80;;
84774;SDS011;75005;50.966;11.344;2023-12-20T14:32:15;2.08;;;1.10;;